createdAt,value
2018-07-25T00:01:26.856Z,6.33
2018-07-25T00:03:54.972Z,5.97
2018-07-25T00:06:23.039Z,6.12
2018-07-25T00:08:51.355Z,5.90
2018-07-25T00:11:19.507Z,6.08
2018-07-25T00:13:47.816Z,6.10
2018-07-25T00:16:15.976Z,6.10
2018-07-25T00:18:44.162Z,5.75
2018-07-25T00:21:12.287Z,5.95
2018-07-25T00:23:40.343Z,5.55
2018-07-25T00:26:08.635Z,5.80
2018-07-25T00:28:36.728Z,6.25
2018-07-25T00:31:04.792Z,6.20
2018-07-25T00:33:32.840Z,6.47
2018-07-25T00:36:00.902Z,6.62
2018-07-25T00:38:28.940Z,6.67
2018-07-25T00:40:56.976Z,6.05
2018-07-25T00:43:25.127Z,6.53
2018-07-25T00:45:53.295Z,6.30
2018-07-25T00:48:21.523Z,5.72
2018-07-25T00:50:49.872Z,6.53
2018-07-25T00:53:18.127Z,6.30
2018-07-25T00:55:46.554Z,6.42
2018-07-25T00:58:15.048Z,5.47
2018-07-25T01:00:43.092Z,6.17
2018-07-25T01:03:11.137Z,6.20
2018-07-25T01:05:39.178Z,6.10
2018-07-25T01:08:07.231Z,6.55
2018-07-25T01:10:38.873Z,5.83
2018-07-25T01:13:06.915Z,5.92
2018-07-25T01:15:34.971Z,5.70
2018-07-25T01:18:03.031Z,6.10
2018-07-25T01:20:31.089Z,6.10
2018-07-25T01:22:59.131Z,6.17
2018-07-25T01:25:27.184Z,6.22
2018-07-25T01:27:55.239Z,5.78
2018-07-25T01:30:23.258Z,5.47
2018-07-25T01:32:51.639Z,5.33
2018-07-25T01:35:19.654Z,5.53
2018-07-25T01:37:47.775Z,5.25
2018-07-25T01:40:15.972Z,5.28
2018-07-25T01:42:44.252Z,5.55
2018-07-25T01:45:12.287Z,5.03
2018-07-25T01:47:40.324Z,5.92
2018-07-25T01:50:08.559Z,6.20
2018-07-25T01:52:36.591Z,5.80
2018-07-25T01:55:05.822Z,5.87
2018-07-25T01:57:33.900Z,5.95
2018-07-25T02:00:01.937Z,5.60
2018-07-25T02:02:29.964Z,5.15
2018-07-25T02:04:58.284Z,5.58
2018-07-25T02:07:26.339Z,5.62
2018-07-25T02:09:54.655Z,5.53
2018-07-25T02:12:22.703Z,5.75
2018-07-25T02:14:50.822Z,5.97
2018-07-25T02:17:18.989Z,5.40
2018-07-25T02:19:47.382Z,5.50
2018-07-25T02:22:15.713Z,5.58
2018-07-25T02:24:43.950Z,5.62
2018-07-25T02:27:12.091Z,5.40
2018-07-25T02:29:40.283Z,6.05
2018-07-25T02:32:08.372Z,6.03
2018-07-25T02:34:36.415Z,5.97
2018-07-25T02:37:04.460Z,5.75
2018-07-25T02:39:32.501Z,5.70
2018-07-25T02:42:00.539Z,5.17
2018-07-25T02:44:28.579Z,5.85
2018-07-25T02:46:56.635Z,5.70
2018-07-25T02:49:24.896Z,6.05
2018-07-25T02:51:53.024Z,6.25
2018-07-25T02:54:21.143Z,5.90
2018-07-25T02:56:49.378Z,5.90
2018-07-25T02:59:17.604Z,5.90
2018-07-25T03:01:46.003Z,5.80
2018-07-25T03:04:14.355Z,6.20
2018-07-25T03:06:42.878Z,7.03
2018-07-25T03:09:11.227Z,6.10
2018-07-25T03:11:39.540Z,5.97
2018-07-25T03:14:07.641Z,6.47
2018-07-25T03:16:35.717Z,6.22
2018-07-25T03:19:03.720Z,6.87
2018-07-25T03:21:31.750Z,6.65
2018-07-25T03:23:59.775Z,6.15
2018-07-25T03:26:27.819Z,5.97
2018-07-25T03:28:55.940Z,6.03
2018-07-25T03:31:24.105Z,5.62
2018-07-25T03:33:52.295Z,5.70
2018-07-25T03:36:20.671Z,6.15
2018-07-25T03:38:48.831Z,5.62
2018-07-25T03:41:17.115Z,5.97
2018-07-25T03:43:45.413Z,6.22
2018-07-25T03:46:13.617Z,5.80
2018-07-25T03:48:41.850Z,6.65
2018-07-25T03:51:09.959Z,6.72
2018-07-25T03:53:38.033Z,6.40
2018-07-25T03:56:06.376Z,6.22
2018-07-25T03:58:34.411Z,6.03
2018-07-25T04:01:02.440Z,6.08
2018-07-25T04:03:30.476Z,6.42
2018-07-25T04:05:58.520Z,5.60
2018-07-25T04:08:26.567Z,5.72
2018-07-25T04:10:54.615Z,5.90
2018-07-25T04:13:22.643Z,6.50
2018-07-25T04:15:50.667Z,6.08
2018-07-25T04:18:18.763Z,6.12
2018-07-25T04:20:46.827Z,5.90
2018-07-25T04:23:14.883Z,6.53
2018-07-25T04:25:43.207Z,6.10
2018-07-25T04:28:11.239Z,6.30
2018-07-25T04:30:39.323Z,5.85
2018-07-25T04:33:07.355Z,6.35
2018-07-25T04:35:35.393Z,6.22
2018-07-25T04:38:03.410Z,6.95
2018-07-25T04:40:31.427Z,6.37
2018-07-25T04:42:59.780Z,6.58
2018-07-25T04:45:27.828Z,6.40
2018-07-25T04:47:55.939Z,5.85
2018-07-25T04:50:24.137Z,6.12
2018-07-25T04:52:52.270Z,6.37
2018-07-25T04:55:20.479Z,5.50
2018-07-25T04:57:48.707Z,5.67
2018-07-25T05:00:17.046Z,6.33
2018-07-25T05:02:45.640Z,5.75
2018-07-25T05:05:13.823Z,5.65
2018-07-25T05:07:42.037Z,5.75
2018-07-25T05:10:10.244Z,5.90
2018-07-25T05:12:38.486Z,5.95
2018-07-25T05:15:07.441Z,6.22
2018-07-25T05:17:35.507Z,6.62
2018-07-25T05:20:03.535Z,6.60
2018-07-25T05:22:31.579Z,6.95
2018-07-25T05:24:59.668Z,6.10
2018-07-25T05:27:27.767Z,6.50
2018-07-25T05:29:56.013Z,5.35
2018-07-25T05:32:24.188Z,5.58
2018-07-25T05:34:52.240Z,5.70
2018-07-25T05:37:20.267Z,5.65
2018-07-25T05:39:48.335Z,5.35
2018-07-25T05:42:16.369Z,5.62
2018-07-25T05:44:44.411Z,5.58
2018-07-25T05:47:12.446Z,6.28
2018-07-25T05:49:40.507Z,6.22
2018-07-25T05:52:08.536Z,5.10
2018-07-25T05:54:36.590Z,5.15
2018-07-25T05:57:04.640Z,5.62
2018-07-25T05:59:32.671Z,5.70
2018-07-25T06:02:00.759Z,4.62
2018-07-25T06:04:28.795Z,5.28
2018-07-25T06:06:56.890Z,5.42
2018-07-25T06:09:25.088Z,5.30
2018-07-25T06:11:53.194Z,5.25
2018-07-25T06:14:21.376Z,5.17
2018-07-25T06:16:49.460Z,5.12
2018-07-25T06:19:17.704Z,5.20
2018-07-25T06:21:45.746Z,4.75
2018-07-25T06:24:14.051Z,4.75
2018-07-25T06:26:42.183Z,4.90
2018-07-25T06:29:10.258Z,4.72
2018-07-25T06:31:38.395Z,5.08
2018-07-25T06:34:06.667Z,5.30
2018-07-25T06:36:34.675Z,5.47
2018-07-25T06:39:02.710Z,5.70
2018-07-25T06:41:30.752Z,5.67
2018-07-25T06:43:58.799Z,5.55
2018-07-25T06:46:26.868Z,4.90
2018-07-25T06:48:54.923Z,5.50
2018-07-25T06:51:22.977Z,4.50
2018-07-25T06:53:51.034Z,4.50
2018-07-25T06:56:19.080Z,4.50
2018-07-25T06:58:47.143Z,4.67
2018-07-25T07:01:15.191Z,4.12
2018-07-25T07:03:43.219Z,4.45
2018-07-25T07:06:11.291Z,4.75
2018-07-25T07:08:39.377Z,4.03
2018-07-25T07:11:07.408Z,3.85
2018-07-25T07:13:35.451Z,4.58
2018-07-25T07:16:03.499Z,4.12
2018-07-25T07:18:31.607Z,4.42
2018-07-25T07:20:59.657Z,4.05
2018-07-25T07:23:27.699Z,4.25
2018-07-25T07:25:55.828Z,4.22
2018-07-25T07:28:23.827Z,4.10
2018-07-25T07:30:51.981Z,4.08
2018-07-25T07:33:20.008Z,3.30
2018-07-25T07:35:48.079Z,4.25
2018-07-25T07:38:16.107Z,3.87
2018-07-25T07:40:44.154Z,4.12
2018-07-25T07:43:12.203Z,3.92
2018-07-25T07:45:40.288Z,3.80
2018-07-25T07:48:08.312Z,4.08
2018-07-25T07:50:36.339Z,3.87
2018-07-25T07:53:04.406Z,4.08
2018-07-25T07:55:32.421Z,4.37
2018-07-25T07:58:00.483Z,4.10
2018-07-25T08:00:28.531Z,4.40
2018-07-25T08:02:56.564Z,3.98
2018-07-25T08:05:24.595Z,4.47
2018-07-25T08:07:52.641Z,4.50
2018-07-25T08:10:20.716Z,4.42
2018-07-25T08:12:48.746Z,4.20
2018-07-25T08:15:16.820Z,4.10
2018-07-25T08:17:44.939Z,4.20
2018-07-25T08:20:12.957Z,3.67
2018-07-25T08:22:41.027Z,3.98
2018-07-25T08:25:09.166Z,4.00
2018-07-25T08:27:37.302Z,4.05
2018-07-25T08:30:05.792Z,3.50
2018-07-25T08:32:33.865Z,3.83
2018-07-25T08:35:01.900Z,3.40
2018-07-25T08:37:30.019Z,4.25
2018-07-25T08:39:58.073Z,4.22
2018-07-25T08:42:26.308Z,3.87
2018-07-25T08:44:54.493Z,3.60
2018-07-25T08:47:23.559Z,3.85
2018-07-25T08:49:51.723Z,3.95
2018-07-25T08:52:19.863Z,4.10
2018-07-25T08:54:48.165Z,4.35
2018-07-25T08:57:16.618Z,3.90
2018-07-25T08:59:44.966Z,3.92
2018-07-25T09:02:13.159Z,4.20
2018-07-25T09:04:41.238Z,3.70
2018-07-25T09:07:09.267Z,4.00
2018-07-25T09:09:37.351Z,3.70
2018-07-25T09:12:05.367Z,4.03
2018-07-25T09:14:33.411Z,4.22
2018-07-25T09:17:01.450Z,3.70
2018-07-25T09:19:29.501Z,4.53
2018-07-25T09:21:57.560Z,3.55
2018-07-25T09:24:25.586Z,3.60
2018-07-25T09:26:53.668Z,4.20
2018-07-25T09:29:21.757Z,3.62
2018-07-25T09:31:49.817Z,3.70
2018-07-25T09:34:17.978Z,3.65
2018-07-25T09:36:46.084Z,3.67
2018-07-25T09:39:14.347Z,3.37
2018-07-25T09:41:42.501Z,3.10
2018-07-25T09:44:10.621Z,3.30
2018-07-25T09:46:38.788Z,3.90
2018-07-25T09:49:06.840Z,3.40
2018-07-25T09:51:34.940Z,3.45
2018-07-25T09:54:02.975Z,3.42
2018-07-25T09:56:31.045Z,3.33
2018-07-25T09:58:59.191Z,3.25
2018-07-25T10:01:27.147Z,3.70
2018-07-25T10:03:55.223Z,3.37
2018-07-25T10:06:23.254Z,3.47
2018-07-25T10:08:51.279Z,3.58
2018-07-25T10:11:19.342Z,3.40
2018-07-25T10:13:47.383Z,3.30
2018-07-25T10:16:15.431Z,3.15
2018-07-25T10:18:43.473Z,3.50
2018-07-25T10:21:11.528Z,3.42
2018-07-25T10:23:39.584Z,3.47
2018-07-25T10:26:07.630Z,3.30
2018-07-25T10:28:35.708Z,3.22
2018-07-25T10:31:03.801Z,3.35
2018-07-25T10:33:31.889Z,3.65
2018-07-25T10:35:59.922Z,3.60
2018-07-25T10:38:28.148Z,3.30
2018-07-25T10:40:56.256Z,3.30
2018-07-25T10:43:24.508Z,3.67
2018-07-25T10:45:52.769Z,3.25
2018-07-25T10:48:20.843Z,3.10
2018-07-25T10:50:49.115Z,3.42
2018-07-25T10:53:17.473Z,3.52
2018-07-25T10:55:45.600Z,3.45
2018-07-25T10:58:13.867Z,3.90
2018-07-25T11:00:41.946Z,3.22
2018-07-25T11:03:10.138Z,3.10
2018-07-25T11:05:38.179Z,3.35
2018-07-25T11:08:06.236Z,3.90
2018-07-25T11:10:34.265Z,3.27
2018-07-25T11:13:02.321Z,3.30
2018-07-25T11:15:30.405Z,3.12
2018-07-25T11:17:58.455Z,3.30
2018-07-25T11:20:26.475Z,3.42
2018-07-25T11:22:54.802Z,3.20
2018-07-25T11:25:22.864Z,3.40
2018-07-25T11:27:51.331Z,3.62
2018-07-25T11:30:19.980Z,3.30
2018-07-25T11:32:48.262Z,3.00
2018-07-25T11:35:16.311Z,3.35
2018-07-25T11:37:44.456Z,3.62
2018-07-25T11:40:12.501Z,3.47
2018-07-25T11:42:40.656Z,3.40
2018-07-25T11:45:08.707Z,3.50
2018-07-25T11:47:36.737Z,3.00
2018-07-25T11:50:04.827Z,3.40
2018-07-25T11:52:32.820Z,3.40
2018-07-25T11:55:00.916Z,3.33
2018-07-25T11:57:28.963Z,3.20
2018-07-25T11:59:56.980Z,3.37
2018-07-25T12:02:25.022Z,3.60
2018-07-25T12:04:53.315Z,3.62
2018-07-25T12:07:21.388Z,3.47
2018-07-25T12:09:49.372Z,3.60
2018-07-25T12:12:17.439Z,3.45
2018-07-25T12:14:45.472Z,3.20
2018-07-25T12:17:13.522Z,3.27
2018-07-25T12:19:41.551Z,3.72
2018-07-25T12:22:09.587Z,3.62
2018-07-25T12:24:37.652Z,3.62
2018-07-25T12:27:05.731Z,3.70
2018-07-25T12:29:33.787Z,3.52
2018-07-25T12:32:01.811Z,3.47
2018-07-25T12:34:29.933Z,4.08
2018-07-25T12:36:57.968Z,3.90
2018-07-25T12:39:26.112Z,3.70
2018-07-25T12:41:54.268Z,3.50
2018-07-25T12:44:22.435Z,3.70
2018-07-25T12:46:51.267Z,3.05
2018-07-25T12:49:19.328Z,3.55
2018-07-25T12:51:47.346Z,3.40
2018-07-25T12:54:15.436Z,4.08
2018-07-25T12:56:43.408Z,3.83
2018-07-25T12:59:11.438Z,3.83
2018-07-25T13:01:39.492Z,4.05
2018-07-25T13:04:07.549Z,3.92
2018-07-25T13:06:35.575Z,3.83
2018-07-25T13:09:05.884Z,3.60
2018-07-25T13:11:33.924Z,3.72
2018-07-25T13:14:02.007Z,3.95
2018-07-25T13:16:30.048Z,3.75
2018-07-25T13:18:58.062Z,3.60
2018-07-25T13:21:26.100Z,4.12
2018-07-25T13:23:54.219Z,3.62
2018-07-25T13:26:22.315Z,3.75
2018-07-25T13:28:50.457Z,3.87
2018-07-25T13:31:19.094Z,3.80
2018-07-25T13:33:47.368Z,3.47
2018-07-25T13:36:15.493Z,4.10
2018-07-25T13:38:43.555Z,3.42
2018-07-25T13:41:11.624Z,4.10
2018-07-25T13:43:39.684Z,3.62
2018-07-25T13:46:07.836Z,3.58
2018-07-25T13:48:35.839Z,3.30
2018-07-25T13:51:03.906Z,3.72
2018-07-25T13:53:31.967Z,3.87
2018-07-25T13:56:00.020Z,4.58
2018-07-25T13:58:28.072Z,3.30
2018-07-25T14:00:56.199Z,3.60
2018-07-25T14:03:24.263Z,3.50
2018-07-25T14:05:52.348Z,3.30
2018-07-25T14:08:20.403Z,3.55
2018-07-25T14:10:48.611Z,3.77
2018-07-25T14:13:16.632Z,3.62
2018-07-25T14:15:44.683Z,3.77
2018-07-25T14:18:12.939Z,4.25
2018-07-25T14:20:40.946Z,4.08
2018-07-25T14:23:09.011Z,4.10
2018-07-25T14:25:37.039Z,3.50
2018-07-25T14:28:05.116Z,3.60
2018-07-25T14:30:33.234Z,3.70
2018-07-25T14:33:01.204Z,3.72
2018-07-25T14:35:29.253Z,3.67
2018-07-25T14:37:57.310Z,3.72
2018-07-25T14:40:25.423Z,3.55
2018-07-25T14:42:53.444Z,3.90
2018-07-25T14:45:21.503Z,4.03
2018-07-25T14:47:49.552Z,3.90
2018-07-25T14:50:17.671Z,4.15
2018-07-25T14:52:45.748Z,4.28
2018-07-25T14:55:13.832Z,3.70
2018-07-25T14:57:41.891Z,3.40
2018-07-25T15:00:10.073Z,3.70
2018-07-25T15:02:38.216Z,3.62
2018-07-25T15:05:06.210Z,3.77
2018-07-25T15:07:34.271Z,4.37
2018-07-25T15:10:02.307Z,3.67
2018-07-25T15:12:35.886Z,3.65
2018-07-25T15:15:04.525Z,3.22
2018-07-25T15:17:32.614Z,3.60
2018-07-25T15:20:00.758Z,3.47
2018-07-25T15:22:28.920Z,3.42
2018-07-25T15:24:57.302Z,3.55
2018-07-25T15:27:25.417Z,3.55
2018-07-25T15:29:53.454Z,3.58
2018-07-25T15:32:21.536Z,3.58
2018-07-25T15:34:49.566Z,3.67
2018-07-25T15:37:17.604Z,3.70
2018-07-25T15:39:45.633Z,3.52
2018-07-25T15:42:13.691Z,4.20
2018-07-25T15:44:41.752Z,3.98
2018-07-25T15:47:09.775Z,4.12
2018-07-25T15:49:37.828Z,3.20
2018-07-25T15:52:05.887Z,3.10
2018-07-25T15:54:33.944Z,3.27
2018-07-25T15:57:01.983Z,3.17
2018-07-25T15:59:29.998Z,3.47
2018-07-25T16:01:58.056Z,3.90
2018-07-25T16:04:26.120Z,3.45
2018-07-25T16:06:54.628Z,4.15
2018-07-25T16:09:22.687Z,3.20
2018-07-25T16:11:50.747Z,3.20
2018-07-25T16:14:19.610Z,3.45
2018-07-25T16:16:48.309Z,3.62
2018-07-25T16:19:16.529Z,3.62
2018-07-25T16:21:45.155Z,3.75
2018-07-25T16:24:13.332Z,3.58
2018-07-25T16:26:41.403Z,3.20
2018-07-25T16:29:09.546Z,3.42
2018-07-25T16:31:37.605Z,3.25
2018-07-25T16:34:05.663Z,3.15
2018-07-25T16:36:33.707Z,3.40
2018-07-25T16:39:01.730Z,3.60
2018-07-25T16:41:29.760Z,3.02
2018-07-25T16:43:57.794Z,3.58
2018-07-25T16:46:25.896Z,4.20
2018-07-25T16:48:54.056Z,3.80
2018-07-25T16:51:22.191Z,3.65
2018-07-25T16:53:50.271Z,2.70
2018-07-25T16:56:18.472Z,3.55
2018-07-25T17:01:21.061Z,3.37
2018-07-25T17:03:49.363Z,3.60
2018-07-25T17:06:17.553Z,3.35
2018-07-25T17:08:45.589Z,3.58
2018-07-25T17:11:13.622Z,3.35
2018-07-25T17:13:41.695Z,3.45
2018-07-25T17:16:09.995Z,3.20
2018-07-25T17:18:38.047Z,3.10
2018-07-25T17:21:07.007Z,3.77
2018-07-25T17:23:41.824Z,3.65
2018-07-25T17:26:10.127Z,4.60
2018-07-25T17:28:38.163Z,4.53
2018-07-25T17:31:06.395Z,4.60
2018-07-25T17:33:34.627Z,4.40
2018-07-25T17:36:02.677Z,4.53
2018-07-25T17:38:30.760Z,4.65
2018-07-25T17:40:58.830Z,4.92
2018-07-25T17:43:26.816Z,4.90
2018-07-25T17:45:54.847Z,5.22
2018-07-25T17:48:23.007Z,4.87
2018-07-25T17:50:51.042Z,4.80
2018-07-25T17:53:19.068Z,5.05
2018-07-25T17:55:47.130Z,4.33
2018-07-25T17:58:15.126Z,4.50
2018-07-25T18:00:43.159Z,4.62
2018-07-25T18:03:11.213Z,4.40
2018-07-25T18:05:39.247Z,4.85
2018-07-25T18:08:07.304Z,5.17
2018-07-25T18:10:35.511Z,5.10
2018-07-25T18:13:08.936Z,5.33
2018-07-25T18:15:36.971Z,5.40
2018-07-25T18:18:05.007Z,5.92
2018-07-25T18:20:33.059Z,5.00
2018-07-25T18:23:01.198Z,5.55
2018-07-25T18:25:29.211Z,5.17
2018-07-25T18:27:57.227Z,5.70
2018-07-25T18:30:25.284Z,5.67
2018-07-25T18:32:53.325Z,5.50
2018-07-25T18:35:21.339Z,5.17
2018-07-25T18:37:49.366Z,5.10
2018-07-25T18:40:17.374Z,5.28
2018-07-25T18:42:45.640Z,5.03
2018-07-25T18:45:13.727Z,4.83
2018-07-25T18:47:41.782Z,5.70
2018-07-25T18:50:10.728Z,5.17
2018-07-25T18:52:38.778Z,5.28
2018-07-25T18:55:06.824Z,4.87
2018-07-25T18:57:34.880Z,5.30
2018-07-25T19:00:02.963Z,5.35
2018-07-25T19:02:31.071Z,5.47
2018-07-25T19:04:59.097Z,4.60
2018-07-25T19:07:27.211Z,5.33
2018-07-25T19:09:55.382Z,5.15
2018-07-25T19:12:23.615Z,4.92
2018-07-25T19:14:57.122Z,4.97
2018-07-25T19:17:25.179Z,5.10
2018-07-25T19:19:53.190Z,5.12
2018-07-25T19:22:21.456Z,4.75
2018-07-25T19:24:49.519Z,4.80
2018-07-25T19:27:17.547Z,5.10
2018-07-25T19:29:45.583Z,4.35
2018-07-25T19:32:13.636Z,5.22
2018-07-25T19:34:41.679Z,5.47
2018-07-25T19:37:09.832Z,4.80
2018-07-25T19:39:38.876Z,5.28
2018-07-25T19:42:08.736Z,5.67
2018-07-25T19:44:37.534Z,5.10
2018-07-25T19:47:06.295Z,4.75
2018-07-25T19:49:35.162Z,5.12
2018-07-25T19:52:03.621Z,5.05
2018-07-25T19:54:31.738Z,5.80
2018-07-25T19:56:59.863Z,5.10
2018-07-25T19:59:27.934Z,5.42
2018-07-25T20:01:56.575Z,5.17
2018-07-25T20:04:24.696Z,5.25
2018-07-25T20:06:52.786Z,5.45
2018-07-25T20:09:20.940Z,5.30
2018-07-25T20:11:49.171Z,5.00
2018-07-25T20:14:22.709Z,5.75
2018-07-25T20:16:50.775Z,4.80
2018-07-25T20:19:18.877Z,4.47
2018-07-25T20:21:46.933Z,4.87
2018-07-25T20:24:15.306Z,5.12
2018-07-25T20:26:43.270Z,4.65
2018-07-25T20:29:11.332Z,4.53
2018-07-25T20:31:39.641Z,5.35
2018-07-25T20:34:07.716Z,4.85
2018-07-25T20:36:35.773Z,5.62
2018-07-25T20:39:06.175Z,5.17
2018-07-25T20:41:34.228Z,4.75
2018-07-25T20:44:02.295Z,4.72
2018-07-25T20:46:30.332Z,4.92
2018-07-25T20:48:58.420Z,4.65
2018-07-25T20:51:26.451Z,5.45
2018-07-25T20:53:54.516Z,5.22
2018-07-25T20:56:22.564Z,4.97
2018-07-25T20:58:50.620Z,5.40
2018-07-25T21:01:18.646Z,4.90
2018-07-25T21:03:46.675Z,4.67
2018-07-25T21:06:15.748Z,5.37
2018-07-25T21:08:43.847Z,5.75
2018-07-25T21:11:12.217Z,5.62
2018-07-25T21:13:40.243Z,5.20
2018-07-25T21:16:08.386Z,5.33
2018-07-25T21:18:36.448Z,5.00
2018-07-25T21:21:04.478Z,5.92
2018-07-25T21:23:32.531Z,5.50
2018-07-25T21:26:00.593Z,5.95
2018-07-25T21:28:29.023Z,5.37
2018-07-25T21:30:57.060Z,5.33
2018-07-25T21:33:25.131Z,5.70
2018-07-25T21:35:53.168Z,5.17
2018-07-25T21:38:21.243Z,5.72
2018-07-25T21:40:49.299Z,5.35
2018-07-25T21:43:17.319Z,4.78
2018-07-25T21:45:45.491Z,5.33
2018-07-25T21:48:13.547Z,5.20
2018-07-25T21:50:41.848Z,6.20
2018-07-25T21:53:09.892Z,5.53
2018-07-25T21:55:37.945Z,5.33
2018-07-25T21:58:06.007Z,6.15
2018-07-25T22:00:34.076Z,6.08
2018-07-25T22:03:02.156Z,6.37
2018-07-25T22:05:30.204Z,6.35
2018-07-25T22:07:58.272Z,6.92
2018-07-25T22:10:27.008Z,8.10
2018-07-25T22:12:55.805Z,7.83
2018-07-25T22:15:24.330Z,8.23
2018-07-25T22:17:52.580Z,8.10
2018-07-25T22:20:20.740Z,9.08
2018-07-25T22:22:49.088Z,8.08
2018-07-25T22:25:17.924Z,9.03
2018-07-25T22:27:46.259Z,7.80
2018-07-25T22:30:14.480Z,7.42
2018-07-25T22:32:42.650Z,7.35
2018-07-25T22:35:10.793Z,7.37
2018-07-25T22:37:38.891Z,7.35
2018-07-25T22:40:06.961Z,9.25
2018-07-25T22:42:35.047Z,9.68
2018-07-25T22:45:03.099Z,8.83
2018-07-25T22:47:31.139Z,8.38
2018-07-25T22:49:59.196Z,9.38
2018-07-25T22:52:27.366Z,8.58
2018-07-25T22:54:55.596Z,8.55
2018-07-25T22:57:23.799Z,7.53
2018-07-25T22:59:52.285Z,9.03
2018-07-25T23:02:20.552Z,8.65
2018-07-25T23:04:48.730Z,8.45
2018-07-25T23:07:17.297Z,8.75
2018-07-25T23:09:45.911Z,8.40
2018-07-25T23:12:14.699Z,8.48
2018-07-25T23:14:43.127Z,8.10
2018-07-25T23:17:11.420Z,8.10
2018-07-25T23:19:39.589Z,7.37
2018-07-25T23:22:07.668Z,7.78
2018-07-25T23:24:35.699Z,7.72
2018-07-25T23:27:03.732Z,6.65
2018-07-25T23:29:31.846Z,7.67
2018-07-25T23:31:59.908Z,9.13
2018-07-25T23:34:28.039Z,7.87
2018-07-25T23:36:56.321Z,9.23
2018-07-25T23:39:24.668Z,8.00
2018-07-25T23:41:53.063Z,6.90
2018-07-25T23:44:21.453Z,7.65
2018-07-25T23:46:49.766Z,7.50
2018-07-25T23:49:17.916Z,7.17
2018-07-25T23:51:46.170Z,6.90
2018-07-25T23:54:14.549Z,7.28
2018-07-25T23:56:42.742Z,7.97
2018-07-25T23:59:10.792Z,6.53
